sensor_id;sensor_type;location;lat;lon;timestamp;pressure;altitude;pressure_sealevel;temperature;humidity
27358;BME280;14831;50.474;7.616;2023-10-09T00:00:57;98560;;;14.9;90.3
27358;BME280;14831;50.474;7.616;2023-10-09T00:05:57;98550;;;14.9;90.5
27358;BME280;14831;50.474;7.616;2023-10-09T00:10:58;98540;;;14.9;90.8
27358;BME280;14831;50.474;7.616;2023-10-09T00:15:58;98540;;;14.9;90.8
27358;BME280;14831;50.474;7.616;2023-10-09T00:20:57;98530;;;14.9;90.9
27358;BME280;14831;50.474;7.616;2023-10-09T00:25:57;98530;;;14.8;91.1
27358;BME280;14831;50.474;7.616;2023-10-09T00:30:57;98520;;;14.8;91.2
27358;BME280;14831;50.474;7.616;2023-10-09T00:36:00;98520;;;14.7;91.2
27358;BME280;14831;50.474;7.616;2023-10-09T00:40:57;98510;;;14.7;91.3
27358;BME280;14831;50.474;7.616;2023-10-09T00:45:58;98510;;;14.7;91.5
27358;BME280;14831;50.474;7.616;2023-10-09T00:50:58;98510;;;14.6;91.8
27358;BME280;14831;50.474;7.616;2023-10-09T00:55:57;98500;;;14.5;92.1
27358;BME280;14831;50.474;7.616;2023-10-09T01:00:57;98490;;;14.4;92.3
27358;BME280;14831;50.474;7.616;2023-10-09T01:05:58;98500;;;14.4;92.5
27358;BME280;14831;50.474;7.616;2023-10-09T01:10:57;98490;;;14.4;92.6
27358;BME280;14831;50.474;7.616;2023-10-09T01:15:57;98500;;;14.3;92.8
27358;BME280;14831;50.474;7.616;2023-10-09T01:20:57;98480;;;14.3;92.9
27358;BME280;14831;50.474;7.616;2023-10-09T01:25:57;98490;;;14.3;92.9
27358;BME280;14831;50.474;7.616;2023-10-09T01:30:57;98480;;;14.3;92.6
27358;BME280;14831;50.474;7.616;2023-10-09T01:35:57;98480;;;14.2;92.6
27358;BME280;14831;50.474;7.616;2023-10-09T01:40:57;98480;;;14.2;92.6
27358;BME280;14831;50.474;7.616;2023-10-09T01:45:57;98480;;;14.2;92.5
27358;BME280;14831;50.474;7.616;2023-10-09T01:50:57;98470;;;14.2;92.7
27358;BME280;14831;50.474;7.616;2023-10-09T01:55:57;98480;;;14.1;92.5
27358;BME280;14831;50.474;7.616;2023-10-09T02:00:57;98470;;;14.1;92.8
27358;BME280;14831;50.474;7.616;2023-10-09T02:05:57;98470;;;14.1;92.8
27358;BME280;14831;50.474;7.616;2023-10-09T02:10:57;98460;;;13.9;93.0
27358;BME280;14831;50.474;7.616;2023-10-09T02:15:57;98460;;;13.9;93.2
27358;BME280;14831;50.474;7.616;2023-10-09T02:21:04;98470;;;13.8;93.4
27358;BME280;14831;50.474;7.616;2023-10-09T02:25:57;98450;;;13.8;93.2
27358;BME280;14831;50.474;7.616;2023-10-09T02:30:57;98450;;;13.8;93.2
27358;BME280;14831;50.474;7.616;2023-10-09T02:35:57;98440;;;13.8;93.3
27358;BME280;14831;50.474;7.616;2023-10-09T02:40:57;98440;;;13.8;93.8
27358;BME280;14831;50.474;7.616;2023-10-09T02:45:57;98440;;;13.8;93.8
27358;BME280;14831;50.474;7.616;2023-10-09T02:50:57;98430;;;13.8;93.6
27358;BME280;14831;50.474;7.616;2023-10-09T02:55:57;98430;;;13.8;93.4
27358;BME280;14831;50.474;7.616;2023-10-09T03:00:57;98430;;;13.8;93.5
27358;BME280;14831;50.474;7.616;2023-10-09T03:05:57;98440;;;13.8;93.3
27358;BME280;14831;50.474;7.616;2023-10-09T03:10:57;98430;;;13.8;93.2
27358;BME280;14831;50.474;7.616;2023-10-09T03:15:57;98440;;;13.8;93.2
27358;BME280;14831;50.474;7.616;2023-10-09T03:20:57;98440;;;13.7;93.1
27358;BME280;14831;50.474;7.616;2023-10-09T03:25:57;98430;;;13.7;93.0
27358;BME280;14831;50.474;7.616;2023-10-09T03:30:57;98430;;;13.7;92.9
27358;BME280;14831;50.474;7.616;2023-10-09T03:35:57;98430;;;13.6;92.9
27358;BME280;14831;50.474;7.616;2023-10-09T03:40:57;98430;;;13.7;92.6
27358;BME280;14831;50.474;7.616;2023-10-09T03:45:57;98430;;;13.8;92.4
27358;BME280;14831;50.474;7.616;2023-10-09T03:50:57;98430;;;13.8;92.3
27358;BME280;14831;50.474;7.616;2023-10-09T03:55:57;98430;;;13.7;92.1
27358;BME280;14831;50.474;7.616;2023-10-09T04:00:57;98430;;;13.7;92.1
27358;BME280;14831;50.474;7.616;2023-10-09T04:05:58;98430;;;13.7;92.2
27358;BME280;14831;50.474;7.616;2023-10-09T04:10:57;98430;;;13.7;92.1
27358;BME280;14831;50.474;7.616;2023-10-09T04:15:59;98430;;;13.7;92.0
27358;BME280;14831;50.474;7.616;2023-10-09T04:20:57;98430;;;13.7;92.0
27358;BME280;14831;50.474;7.616;2023-10-09T04:25:57;98420;;;13.7;91.9
27358;BME280;14831;50.474;7.616;2023-10-09T04:30:57;98420;;;13.8;91.9
27358;BME280;14831;50.474;7.616;2023-10-09T04:36:00;98410;;;13.8;91.8
27358;BME280;14831;50.474;7.616;2023-10-09T04:40:57;98410;;;13.8;91.6
27358;BME280;14831;50.474;7.616;2023-10-09T04:45:58;98410;;;13.8;91.6
27358;BME280;14831;50.474;7.616;2023-10-09T04:50:57;98400;;;13.8;91.4
27358;BME280;14831;50.474;7.616;2023-10-09T04:55:57;98410;;;13.9;91.3
27358;BME280;14831;50.474;7.616;2023-10-09T05:00:57;98400;;;13.8;91.3
27358;BME280;14831;50.474;7.616;2023-10-09T05:05:57;98400;;;13.8;91.3
27358;BME280;14831;50.474;7.616;2023-10-09T05:10:58;98400;;;13.8;91.3
27358;BME280;14831;50.474;7.616;2023-10-09T05:15:57;98410;;;13.8;91.2
27358;BME280;14831;50.474;7.616;2023-10-09T05:20:57;98400;;;13.8;91.0
27358;BME280;14831;50.474;7.616;2023-10-09T05:25:57;98420;;;13.8;91.2
27358;BME280;14831;50.474;7.616;2023-10-09T05:30:58;98410;;;13.8;91.2
27358;BME280;14831;50.474;7.616;2023-10-09T05:35:57;98420;;;13.8;91.2
27358;BME280;14831;50.474;7.616;2023-10-09T05:40:57;98410;;;13.7;91.4
27358;BME280;14831;50.474;7.616;2023-10-09T05:45:57;98410;;;13.6;91.6
27358;BME280;14831;50.474;7.616;2023-10-09T05:50:57;98420;;;13.6;91.6
27358;BME280;14831;50.474;7.616;2023-10-09T05:55:57;98420;;;13.6;91.7
27358;BME280;14831;50.474;7.616;2023-10-09T06:00:57;98420;;;13.6;91.7
27358;BME280;14831;50.474;7.616;2023-10-09T06:05:57;98420;;;13.7;91.6
27358;BME280;14831;50.474;7.616;2023-10-09T06:10:57;98420;;;13.7;91.8
27358;BME280;14831;50.474;7.616;2023-10-09T06:15:57;98410;;;13.7;91.8
27358;BME280;14831;50.474;7.616;2023-10-09T06:20:57;98410;;;13.7;91.9
27358;BME280;14831;50.474;7.616;2023-10-09T06:26:00;98420;;;13.8;91.8
27358;BME280;14831;50.474;7.616;2023-10-09T06:30:57;98430;;;13.8;91.8
27358;BME280;14831;50.474;7.616;2023-10-09T06:35:57;98430;;;13.8;91.8
27358;BME280;14831;50.474;7.616;2023-10-09T06:40:57;98420;;;13.9;91.9
27358;BME280;14831;50.474;7.616;2023-10-09T06:45:58;98430;;;13.9;92.1
27358;BME280;14831;50.474;7.616;2023-10-09T06:50:57;98420;;;14.0;92.0
27358;BME280;14831;50.474;7.616;2023-10-09T06:55:57;98430;;;14.0;91.9
27358;BME280;14831;50.474;7.616;2023-10-09T07:00:57;98460;;;14.1;91.6
27358;BME280;14831;50.474;7.616;2023-10-09T07:06:05;98460;;;14.3;91.7
27358;BME280;14831;50.474;7.616;2023-10-09T07:10:57;98460;;;14.4;91.6
27358;BME280;14831;50.474;7.616;2023-10-09T07:15:57;98440;;;14.4;91.4
27358;BME280;14831;50.474;7.616;2023-10-09T07:20:57;98450;;;14.4;91.3
27358;BME280;14831;50.474;7.616;2023-10-09T07:26:01;98450;;;14.5;90.8
27358;BME280;14831;50.474;7.616;2023-10-09T07:30:57;98460;;;14.6;90.8
27358;BME280;14831;50.474;7.616;2023-10-09T07:36:00;98460;;;14.6;90.6
27358;BME280;14831;50.474;7.616;2023-10-09T07:40:57;98470;;;14.7;90.1
27358;BME280;14831;50.474;7.616;2023-10-09T07:45:58;98480;;;14.8;90.0
27358;BME280;14831;50.474;7.616;2023-10-09T07:50:57;98490;;;14.9;89.9
27358;BME280;14831;50.474;7.616;2023-10-09T07:55:58;98500;;;15.1;89.5
27358;BME280;14831;50.474;7.616;2023-10-09T08:00:57;98490;;;15.1;89.3
27358;BME280;14831;50.474;7.616;2023-10-09T08:05:57;98490;;;15.3;88.9
27358;BME280;14831;50.474;7.616;2023-10-09T08:10:57;98490;;;15.4;88.8
27358;BME280;14831;50.474;7.616;2023-10-09T08:15:57;98490;;;15.6;88.7
27358;BME280;14831;50.474;7.616;2023-10-09T08:20:57;98490;;;15.9;88.8
27358;BME280;14831;50.474;7.616;2023-10-09T08:25:59;98490;;;16.2;87.7
27358;BME280;14831;50.474;7.616;2023-10-09T08:30:57;98490;;;16.2;87.8
27358;BME280;14831;50.474;7.616;2023-10-09T08:35:57;98510;;;16.1;87.3
27358;BME280;14831;50.474;7.616;2023-10-09T08:40:57;98490;;;16.0;86.9
27358;BME280;14831;50.474;7.616;2023-10-09T08:45:57;98500;;;16.1;86.3
27358;BME280;14831;50.474;7.616;2023-10-09T08:50:57;98510;;;16.1;86.0
27358;BME280;14831;50.474;7.616;2023-10-09T08:55:57;98510;;;16.3;86.3
27358;BME280;14831;50.474;7.616;2023-10-09T09:00:57;98510;;;16.5;85.6
27358;BME280;14831;50.474;7.616;2023-10-09T09:05:58;98510;;;16.7;83.0
27358;BME280;14831;50.474;7.616;2023-10-09T09:10:58;98520;;;16.9;83.1
27358;BME280;14831;50.474;7.616;2023-10-09T09:15:57;98520;;;16.9;83.2
27358;BME280;14831;50.474;7.616;2023-10-09T09:20:57;98520;;;17.0;83.5
27358;BME280;14831;50.474;7.616;2023-10-09T09:25:57;98520;;;17.2;83.3
27358;BME280;14831;50.474;7.616;2023-10-09T09:31:00;98510;;;17.2;83.1
27358;BME280;14831;50.474;7.616;2023-10-09T09:35:58;98510;;;17.1;83.3
27358;BME280;14831;50.474;7.616;2023-10-09T09:40:57;98490;;;16.9;81.6
27358;BME280;14831;50.474;7.616;2023-10-09T09:45:57;98490;;;16.6;81.8
27358;BME280;14831;50.474;7.616;2023-10-09T09:50:57;98540;;;16.8;82.1
27358;BME280;14831;50.474;7.616;2023-10-09T09:55:57;98530;;;16.9;80.6
27358;BME280;14831;50.474;7.616;2023-10-09T10:00:59;98480;;;17.2;80.3
27358;BME280;14831;50.474;7.616;2023-10-09T10:05:57;98440;;;17.5;80.5
27358;BME280;14831;50.474;7.616;2023-10-09T10:10:57;98450;;;17.7;80.7
27358;BME280;14831;50.474;7.616;2023-10-09T10:15:59;98450;;;17.8;79.6
27358;BME280;14831;50.474;7.616;2023-10-09T10:21:09;98440;;;17.8;77.7
27358;BME280;14831;50.474;7.616;2023-10-09T10:25:59;98440;;;18.0;78.2
27358;BME280;14831;50.474;7.616;2023-10-09T10:30:57;98440;;;18.2;75.5
27358;BME280;14831;50.474;7.616;2023-10-09T10:35:57;98440;;;18.4;76.0
27358;BME280;14831;50.474;7.616;2023-10-09T10:41:07;98440;;;18.4;73.5
27358;BME280;14831;50.474;7.616;2023-10-09T10:46:00;98430;;;18.7;73.5
27358;BME280;14831;50.474;7.616;2023-10-09T10:50:57;98420;;;18.9;72.7
27358;BME280;14831;50.474;7.616;2023-10-09T10:55:58;98420;;;19.3;70.2
27358;BME280;14831;50.474;7.616;2023-10-09T11:00:57;98410;;;19.5;71.2
27358;BME280;14831;50.474;7.616;2023-10-09T11:06:00;98410;;;19.5;69.8
27358;BME280;14831;50.474;7.616;2023-10-09T11:11:13;98410;;;19.6;71.6
27358;BME280;14831;50.474;7.616;2023-10-09T11:15:57;98400;;;19.6;71.0
27358;BME280;14831;50.474;7.616;2023-10-09T11:20:57;98400;;;19.6;72.2
27358;BME280;14831;50.474;7.616;2023-10-09T11:25:57;98410;;;19.8;71.2
27358;BME280;14831;50.474;7.616;2023-10-09T11:31:05;98400;;;19.7;69.4
27358;BME280;14831;50.474;7.616;2023-10-09T11:35:57;98410;;;19.9;67.9
27358;BME280;14831;50.474;7.616;2023-10-09T11:40:57;98390;;;19.9;66.7
27358;BME280;14831;50.474;7.616;2023-10-09T11:46:07;98400;;;19.8;67.5
27358;BME280;14831;50.474;7.616;2023-10-09T11:50:57;98400;;;19.7;66.1
27358;BME280;14831;50.474;7.616;2023-10-09T11:55:57;98390;;;19.8;66.1
27358;BME280;14831;50.474;7.616;2023-10-09T12:00:58;98390;;;19.8;66.3
27358;BME280;14831;50.474;7.616;2023-10-09T12:05:58;98390;;;19.7;64.6
27358;BME280;14831;50.474;7.616;2023-10-09T12:10:57;98390;;;19.8;63.9
27358;BME280;14831;50.474;7.616;2023-10-09T12:15:57;98390;;;20.1;64.8
27358;BME280;14831;50.474;7.616;2023-10-09T12:20:57;98390;;;20.3;63.3
27358;BME280;14831;50.474;7.616;2023-10-09T12:25:57;98390;;;20.4;62.8
27358;BME280;14831;50.474;7.616;2023-10-09T12:30:57;98380;;;20.4;61.9
27358;BME280;14831;50.474;7.616;2023-10-09T12:35:58;98370;;;20.4;62.2
27358;BME280;14831;50.474;7.616;2023-10-09T12:41:01;98390;;;20.4;60.8
27358;BME280;14831;50.474;7.616;2023-10-09T12:45:57;98380;;;20.4;61.8
27358;BME280;14831;50.474;7.616;2023-10-09T12:50:57;98380;;;20.4;63.6
27358;BME280;14831;50.474;7.616;2023-10-09T12:55:57;98360;;;20.4;63.5
27358;BME280;14831;50.474;7.616;2023-10-09T13:00:57;98370;;;20.4;64.1
27358;BME280;14831;50.474;7.616;2023-10-09T13:05:57;98380;;;20.4;63.5
27358;BME280;14831;50.474;7.616;2023-10-09T13:11:01;98370;;;20.4;63.6
27358;BME280;14831;50.474;7.616;2023-10-09T13:15:57;98380;;;20.4;63.5
27358;BME280;14831;50.474;7.616;2023-10-09T13:20:57;98390;;;20.4;62.4
27358;BME280;14831;50.474;7.616;2023-10-09T13:25:57;98370;;;20.4;62.6
27358;BME280;14831;50.474;7.616;2023-10-09T13:30:57;98370;;;20.4;64.9
27358;BME280;14831;50.474;7.616;2023-10-09T13:35:57;98380;;;20.4;66.3
27358;BME280;14831;50.474;7.616;2023-10-09T13:40:57;98370;;;19.8;66.3
27358;BME280;14831;50.474;7.616;2023-10-09T13:45:57;98380;;;19.9;66.2
27358;BME280;14831;50.474;7.616;2023-10-09T13:50:58;98370;;;19.9;65.7
27358;BME280;14831;50.474;7.616;2023-10-09T13:55:57;98370;;;19.9;67.4
27358;BME280;14831;50.474;7.616;2023-10-09T14:00:57;98370;;;19.9;68.1
27358;BME280;14831;50.474;7.616;2023-10-09T14:05:57;98380;;;19.8;68.6
27358;BME280;14831;50.474;7.616;2023-10-09T14:10:57;98380;;;19.9;68.0
27358;BME280;14831;50.474;7.616;2023-10-09T14:15:57;98390;;;19.9;66.0
27358;BME280;14831;50.474;7.616;2023-10-09T14:21:00;98380;;;20.1;65.4
27358;BME280;14831;50.474;7.616;2023-10-09T14:25:57;98380;;;19.9;65.0
27358;BME280;14831;50.474;7.616;2023-10-09T14:30:57;98390;;;20.0;64.8
27358;BME280;14831;50.474;7.616;2023-10-09T14:35:57;98380;;;19.9;63.8
27358;BME280;14831;50.474;7.616;2023-10-09T14:40:57;98380;;;19.9;61.6
27358;BME280;14831;50.474;7.616;2023-10-09T14:45:57;98380;;;19.9;60.0
27358;BME280;14831;50.474;7.616;2023-10-09T14:50:57;98370;;;19.8;59.0
27358;BME280;14831;50.474;7.616;2023-10-09T14:55:57;98380;;;19.7;59.3
27358;BME280;14831;50.474;7.616;2023-10-09T15:00:57;98380;;;19.7;59.1
27358;BME280;14831;50.474;7.616;2023-10-09T15:05:58;98370;;;19.6;59.2
27358;BME280;14831;50.474;7.616;2023-10-09T15:10:57;98380;;;19.6;59.7
27358;BME280;14831;50.474;7.616;2023-10-09T15:15:57;98370;;;19.6;59.4
27358;BME280;14831;50.474;7.616;2023-10-09T15:20:57;98370;;;19.5;60.3
27358;BME280;14831;50.474;7.616;2023-10-09T15:25:57;98390;;;19.4;61.1
27358;BME280;14831;50.474;7.616;2023-10-09T15:30:57;98380;;;19.4;59.8
27358;BME280;14831;50.474;7.616;2023-10-09T15:35:57;98380;;;19.2;56.2
27358;BME280;14831;50.474;7.616;2023-10-09T15:40:59;98380;;;19.3;56.9
27358;BME280;14831;50.474;7.616;2023-10-09T15:45:57;98380;;;19.3;58.4
27358;BME280;14831;50.474;7.616;2023-10-09T15:50:57;98390;;;19.1;58.8
27358;BME280;14831;50.474;7.616;2023-10-09T15:55:57;98390;;;18.9;59.4
27358;BME280;14831;50.474;7.616;2023-10-09T16:00:57;98390;;;18.9;59.1
27358;BME280;14831;50.474;7.616;2023-10-09T16:05:58;98390;;;18.8;57.2
27358;BME280;14831;50.474;7.616;2023-10-09T16:10:57;98400;;;18.7;57.3
27358;BME280;14831;50.474;7.616;2023-10-09T16:15:57;98390;;;18.7;56.7
27358;BME280;14831;50.474;7.616;2023-10-09T16:20:57;98390;;;18.6;56.4
27358;BME280;14831;50.474;7.616;2023-10-09T16:25:57;98390;;;18.5;57.7
27358;BME280;14831;50.474;7.616;2023-10-09T16:30:57;98400;;;18.2;59.5
27358;BME280;14831;50.474;7.616;2023-10-09T16:35:57;98400;;;18.2;59.6
27358;BME280;14831;50.474;7.616;2023-10-09T16:40:57;98410;;;18.1;60.3
27358;BME280;14831;50.474;7.616;2023-10-09T16:45:57;98410;;;17.9;61.1
27358;BME280;14831;50.474;7.616;2023-10-09T16:50:57;98410;;;17.9;60.3
27358;BME280;14831;50.474;7.616;2023-10-09T16:55:57;98410;;;17.8;62.8
27358;BME280;14831;50.474;7.616;2023-10-09T17:00:57;98420;;;17.5;61.8
27358;BME280;14831;50.474;7.616;2023-10-09T17:05:57;98410;;;17.4;61.2
27358;BME280;14831;50.474;7.616;2023-10-09T17:10:57;98410;;;17.4;60.8
27358;BME280;14831;50.474;7.616;2023-10-09T17:15:57;98420;;;17.3;60.9
27358;BME280;14831;50.474;7.616;2023-10-09T17:20:57;98410;;;17.3;60.6
27358;BME280;14831;50.474;7.616;2023-10-09T17:26:01;98410;;;17.4;59.4
27358;BME280;14831;50.474;7.616;2023-10-09T17:30:59;98430;;;17.7;57.7
27358;BME280;14831;50.474;7.616;2023-10-09T17:35:59;98430;;;17.9;56.5
27358;BME280;14831;50.474;7.616;2023-10-09T17:40:57;98430;;;18.0;57.1
27358;BME280;14831;50.474;7.616;2023-10-09T17:45:57;98440;;;17.8;57.7
27358;BME280;14831;50.474;7.616;2023-10-09T17:50:57;98430;;;17.8;58.8
27358;BME280;14831;50.474;7.616;2023-10-09T17:55:57;98440;;;17.7;58.4
27358;BME280;14831;50.474;7.616;2023-10-09T18:00:57;98440;;;17.6;59.3
27358;BME280;14831;50.474;7.616;2023-10-09T18:05:57;98450;;;17.4;60.3
27358;BME280;14831;50.474;7.616;2023-10-09T18:10:58;98450;;;17.2;60.5
27358;BME280;14831;50.474;7.616;2023-10-09T18:16:01;98450;;;17.1;60.7
27358;BME280;14831;50.474;7.616;2023-10-09T18:20:57;98460;;;17.1;61.2
27358;BME280;14831;50.474;7.616;2023-10-09T18:25:57;98460;;;17.0;62.1
27358;BME280;14831;50.474;7.616;2023-10-09T18:30:57;98470;;;16.8;62.8
27358;BME280;14831;50.474;7.616;2023-10-09T18:35:57;98470;;;16.7;63.2
27358;BME280;14831;50.474;7.616;2023-10-09T18:40:57;98470;;;16.5;64.4
27358;BME280;14831;50.474;7.616;2023-10-09T18:45:57;98470;;;16.3;64.3
27358;BME280;14831;50.474;7.616;2023-10-09T18:50:57;98470;;;16.2;65.2
27358;BME280;14831;50.474;7.616;2023-10-09T18:55:57;98470;;;16.1;65.0
27358;BME280;14831;50.474;7.616;2023-10-09T19:00:57;98470;;;16.2;65.7
27358;BME280;14831;50.474;7.616;2023-10-09T19:05:57;98480;;;15.8;66.5
27358;BME280;14831;50.474;7.616;2023-10-09T19:10:58;98480;;;15.9;66.2
27358;BME280;14831;50.474;7.616;2023-10-09T19:15:57;98490;;;15.8;65.7
27358;BME280;14831;50.474;7.616;2023-10-09T19:20:57;98490;;;15.6;65.5
27358;BME280;14831;50.474;7.616;2023-10-09T19:25:57;98490;;;15.4;65.6
27358;BME280;14831;50.474;7.616;2023-10-09T19:31:05;98500;;;15.3;66.5
27358;BME280;14831;50.474;7.616;2023-10-09T19:36:00;98490;;;15.2;67.1
27358;BME280;14831;50.474;7.616;2023-10-09T19:40:57;98490;;;15.0;67.0
27358;BME280;14831;50.474;7.616;2023-10-09T19:46:00;98490;;;14.8;67.8
27358;BME280;14831;50.474;7.616;2023-10-09T19:50:58;98490;;;14.7;68.2
27358;BME280;14831;50.474;7.616;2023-10-09T19:55:57;98500;;;14.6;69.1
27358;BME280;14831;50.474;7.616;2023-10-09T20:00:57;98500;;;14.4;68.8
27358;BME280;14831;50.474;7.616;2023-10-09T20:05:57;98500;;;14.4;69.3
27358;BME280;14831;50.474;7.616;2023-10-09T20:11:03;98500;;;14.4;68.9
27358;BME280;14831;50.474;7.616;2023-10-09T20:15:57;98510;;;14.3;69.8
27358;BME280;14831;50.474;7.616;2023-10-09T20:20:58;98500;;;14.2;69.9
27358;BME280;14831;50.474;7.616;2023-10-09T20:25:58;98520;;;14.1;70.4
27358;BME280;14831;50.474;7.616;2023-10-09T20:30:57;98530;;;14.0;71.2
27358;BME280;14831;50.474;7.616;2023-10-09T20:35:57;98520;;;13.9;71.1
27358;BME280;14831;50.474;7.616;2023-10-09T20:40:57;98530;;;13.9;70.6
27358;BME280;14831;50.474;7.616;2023-10-09T20:45:57;98520;;;14.0;71.1
27358;BME280;14831;50.474;7.616;2023-10-09T20:50:57;98530;;;14.1;71.0
27358;BME280;14831;50.474;7.616;2023-10-09T20:55:57;98530;;;14.1;70.9
27358;BME280;14831;50.474;7.616;2023-10-09T21:00:57;98530;;;14.1;71.1
27358;BME280;14831;50.474;7.616;2023-10-09T21:06:00;98530;;;14.2;71.5
27358;BME280;14831;50.474;7.616;2023-10-09T21:10:57;98530;;;14.3;71.6
27358;BME280;14831;50.474;7.616;2023-10-09T21:15:57;98540;;;14.3;71.7
27358;BME280;14831;50.474;7.616;2023-10-09T21:20:58;98540;;;14.3;71.7
27358;BME280;14831;50.474;7.616;2023-10-09T21:25:57;98540;;;14.4;72.1
27358;BME280;14831;50.474;7.616;2023-10-09T21:30:57;98540;;;14.3;71.9
27358;BME280;14831;50.474;7.616;2023-10-09T21:35:57;98540;;;14.2;71.9
27358;BME280;14831;50.474;7.616;2023-10-09T21:40:57;98550;;;14.2;72.5
27358;BME280;14831;50.474;7.616;2023-10-09T21:45:57;98540;;;14.1;72.5
27358;BME280;14831;50.474;7.616;2023-10-09T21:50:57;98540;;;14.1;72.5
27358;BME280;14831;50.474;7.616;2023-10-09T21:56:05;98530;;;13.9;73.0
27358;BME280;14831;50.474;7.616;2023-10-09T22:00:57;98540;;;13.8;72.9
27358;BME280;14831;50.474;7.616;2023-10-09T22:05:57;98530;;;13.7;74.5
27358;BME280;14831;50.474;7.616;2023-10-09T22:10:57;98530;;;13.5;74.8
27358;BME280;14831;50.474;7.616;2023-10-09T22:15:57;98530;;;13.5;76.2
27358;BME280;14831;50.474;7.616;2023-10-09T22:20:57;98510;;;13.3;76.6
27358;BME280;14831;50.474;7.616;2023-10-09T22:25:57;98520;;;13.3;75.9
27358;BME280;14831;50.474;7.616;2023-10-09T22:30:57;98500;;;13.3;75.7
27358;BME280;14831;50.474;7.616;2023-10-09T22:35:57;98510;;;13.2;75.6
27358;BME280;14831;50.474;7.616;2023-10-09T22:40:57;98510;;;13.2;75.9
27358;BME280;14831;50.474;7.616;2023-10-09T22:45:57;98510;;;13.3;75.6
27358;BME280;14831;50.474;7.616;2023-10-09T22:50:57;98500;;;13.2;75.4
27358;BME280;14831;50.474;7.616;2023-10-09T22:55:57;98510;;;13.3;75.2
27358;BME280;14831;50.474;7.616;2023-10-09T23:00:57;98510;;;13.3;75.8
27358;BME280;14831;50.474;7.616;2023-10-09T23:05:59;98510;;;13.4;75.8
27358;BME280;14831;50.474;7.616;2023-10-09T23:10:57;98510;;;13.4;76.0
27358;BME280;14831;50.474;7.616;2023-10-09T23:15:58;98510;;;13.5;76.3
27358;BME280;14831;50.474;7.616;2023-10-09T23:20:57;98500;;;13.5;76.6
27358;BME280;14831;50.474;7.616;2023-10-09T23:25:57;98510;;;13.4;77.1
27358;BME280;14831;50.474;7.616;2023-10-09T23:30:57;98510;;;13.3;76.9
27358;BME280;14831;50.474;7.616;2023-10-09T23:35:57;98520;;;13.3;76.9
27358;BME280;14831;50.474;7.616;2023-10-09T23:40:57;98520;;;13.2;77.0
27358;BME280;14831;50.474;7.616;2023-10-09T23:45:57;98520;;;13.3;77.4
27358;BME280;14831;50.474;7.616;2023-10-09T23:50:58;98530;;;13.3;78.5
27358;BME280;14831;50.474;7.616;2023-10-09T23:55:57;98520;;;13.3;79.0
